Oklahoma City, OK (73112)

10:56 AM CST on March 05, 2015 (GMT -0600)
Edgewater | Change Station
CLOSE
Current Station
Personal Weather Station
Location: Oklahoma City, OK
Elevation: 1243 ft
Nearby Weather Stations

Elev 1243 ft 35.54 °N, 97.59 °W | Updated 5 minutes ago

Clear
Clear
39.6 °F
Feels Like 40 °F
N
2.2
Wind Variable Wind from West

Today
High -- | Low -- °F
--% Chance of Precip.
Yesterday
High -- | Low -- °F
Precip. -- in
6:55 AM 6:29 PM
Full, 100% visible
Pressure 30.63 in
Visibility 9.0 miles
Clouds Clear
Windchill 40 °F
Dew Point 22 °F
Humidity 48%
Rainfall in
Snow Depth Not available.
UV 4 out of 12
Pollen 4.90 out of 12
Air Quality Not available.
Flu Activity Not available.
METAR KPWA 051553Z 00000KT 9SM CLR M04/M09 A3058 RMK AO2 SLP371 T10391094

More Conditions Fewer Conditions

Pressure 30.63 in
Visibility 9.0 miles
Clouds Clear
Windchill 40 °F
Dew Point 22 °F
Humidity 48%
Rainfall in
Snow Depth Not available.
UV 4 out of 12
Pollen 4.90 out of 12
Air Quality Not available.
Flu Activity Not available.
METAR KPWA 051553Z 00000KT 9SM CLR M04/M09 A3058 RMK AO2 SLP371 T10391094

More Conditions Fewer Conditions

10-Day Weather Forecast

Almanac

Astronomy

Mar. 05, 2015 Rise Set
Actual Time
Civil Twilight
Nautical Twilight
Astronomical Twilight
Moon
Length of Visible Light
Length of Day
Tomorrow will be .
, % of the Moon is Illuminated

Today's Extremes

State Highs State Lows

Community

WunderPhotos

Upload Photos

1,802,851 photos uploaded!

WunderBlogs® & News

Nearby

Air Quality

  Air Quality AQ Index Pollutant
Not available.

Snow Depth

Station Depth Elevation

Earthquake Activity

City Distance Mag. Time & Date
Minimum magnitude displayed is 2.5.

Coastal Water Temperatures

Place Temperature

Nearby Weather Stations